Holly Springs, North Carolina
Current Conditions -  °F | °C
As of 9:51 AM on Saturday 20 Dec 2014 (Local Time) from KRDU Reporting Station
Overcast Overcast  
Wind Chill: 27°   Ceiling: 5500
Heat Index: 33°   Visibility: 7mi
Dew Point: 28°   Wind: 7mph
Humidity: 82%   Direction: 30°NNE
Pressure: 30.31"   Gusts: NA
Location:  35.65°N, 78.83°W
Report Text: KRDU 201451Z 03006KT 7SM BKN055 OVC070 01/M02 A3031 RMK AO2 DZB07E38RAB38E48SNE03 SLP266 P0002 60002 T00061022 53007
Loading
Personal Weather Stations






























Interactive Weather Map New forecast layout! Learn more

10-Day Weather Forecast

Advertisements
Track Severe Weather on mobile